Home > Products > Valid Products > TAF

000
FTUS41 KCLE 081237 AAA
TAFMFD
TAF AMD
KMFD 081237Z 0813/0912 19006KT P6SM VCSH SCT008 OVC035
      TEMPO 0813/0816 3SM -RASN BR SCT008 OVC012
     FM081600 27008KT 4SM -SN SCT006 OVC012
      TEMPO 0816/0820 1 1/2SM -SN OVC004
     FM082300 28005KT 6SM BR OVC012
     FM090300 28005KT 2SM -SN BR OVC008=



000
FTUS41 KCLE 081159 CCA
TAFCLE
TAF COR
KCLE 081159Z 0812/0918 21004KT P6SM -RA BKN015 OVC025
     FM081400 24008KT 5SM -RA BR SCT008 OVC015
     FM081900 28008KT 4SM -RASN BR SCT006 OVC012
     FM090000 26005KT 5SM BR OVC012=



000
FTUS41 KCLE 081136
TAFCAK
TAF
KCAK 081136Z 0812/0912 18006KT P6SM VCSH SCT025 OVC050
     FM081400 20006KT 5SM -RA BR SCT015 OVC025
      TEMPO 0816/0820 3SM -RA BR SCT008 OVC012
     FM082000 26008KT 3SM -RASN BR SCT008 OVC012
      TEMPO 0820/0823 1 1/2SM -SN BR OVC008
     FM090000 27005KT 4SM BR OVC012
     FM090400 28004KT 2SM -SN BR OVC007=



000
FTUS41 KCLE 081136
TAFCLE
TAF
KCLE 081136Z 0812/0918 21004KT P6SM -RA BKN025 OVC050
     FM081400 24008KT 5SM -RA BR SCT008 OVC015
     FM081900 28008KT 4SM -RASN BR SCT006 OVC012
     FM090000 26005KT 5SM BR OVC012=



000
FTUS41 KCLE 081136
TAFYNG
TAF
KYNG 081136Z 0812/0912 16008KT P6SM BKN050 OVC100
     FM081700 15008KT 4SM -RA BR SCT015 OVC025
      TEMPO 0819/0823 2SM -RA BR SCT008 OVC012
     FM082300 24005KT 3SM -SN BR OVC006=



000
FTUS41 KCLE 081136
TAFFDY
TAF
KFDY 081136Z 0812/0912 25005KT P6SM SCT050 OVC090
     FM081500 28010KT 5SM BR SCT025 OVC035
     FM090200 29009KT P6SM VCSH SCT015 OVC025=



000
FTUS41 KCLE 081136
TAFMFD
TAF
KMFD 081136Z 0812/0912 19006KT P6SM VCSH SCT008 OVC035
      TEMPO 0813/0816 3SM -RA BR SCT008 OVC012
     FM081600 27008KT 4SM -SN SCT006 OVC012
      TEMPO 0816/0820 1 1/2SM -SN OVC004
     FM082300 28005KT 6SM BR OVC012
     FM090300 28005KT 2SM -SN BR OVC008=



000
FTUS41 KCLE 081136
TAFERI
TAF
KERI 081136Z 0812/0912 16012KT P6SM SCT050 OVC100
     FM082000 19008KT 6SM -RA SCT015 OVC025
     FM090000 22006KT 4SM -RA BR OVC015
     FM090300 24005KT 4SM -SN BR SCT006 OVC012=



000
FTUS41 KCLE 081136
TAFCAK
TAF
KCAK 081136Z 0812/0912 18006KT P6SM VCSH SCT025 OVC050
     FM081400 20006KT 5SM -RA BR SCT015 OVC025
      TEMPO 0816/0820 3SM -RA BR SCT008 OVC012
     FM082000 26008KT 3SM -RASN BR SCT008 OVC012
      TEMPO 0820/0823 1 1/2SM -SN BR OVC008
     FM090000 27005KT 4SM BR OVC012
     FM090400 28004KT 2SM -SN BR OVC007=



000
FTUS41 KCLE 081136
TAFCLE
TAF
KCLE 081136Z 0812/0918 21004KT P6SM -RA BKN025 OVC050
     FM081400 24008KT 5SM -RA BR SCT008 OVC015
     FM081900 28008KT 4SM -RASN BR SCT006 OVC012
     FM090000 26005KT 5SM BR OVC012=



000
FTUS41 KCLE 081136
TAFYNG
TAF
KYNG 081136Z 0812/0912 16008KT P6SM BKN050 OVC100
     FM081700 15008KT 4SM -RA BR SCT015 OVC025
      TEMPO 0819/0823 2SM -RA BR SCT008 OVC012
     FM082300 24005KT 3SM -SN BR OVC006=



000
FTUS41 KCLE 081136
TAFFDY
TAF
KFDY 081136Z 0812/0912 25005KT P6SM SCT050 OVC090
     FM081500 28010KT 5SM BR SCT025 OVC035
     FM090200 29009KT P6SM VCSH SCT015 OVC025=



000
FTUS41 KCLE 081136
TAFTOL
TAF
KTOL 081136Z 0812/0912 25005KT P6SM SCT050 OVC100
     FM081500 28008KT 5SM BR SCT025 OVC035
     FM090700 27008KT P6SM OVC025=



000
FTUS41 KCLE 081136
TAFMFD
TAF
KMFD 081136Z 0812/0912 19006KT P6SM VCSH SCT008 OVC035
      TEMPO 0813/0816 3SM -RA BR SCT008 OVC012
     FM081600 27008KT 4SM -SN SCT006 OVC012
      TEMPO 0816/0820 1 1/2SM -SN OVC004
     FM082300 28005KT 6SM BR OVC012
     FM090300 28005KT 2SM -SN BR OVC008=



000
FTUS41 KCLE 081136
TAFERI
TAF
KERI 081136Z 0812/0912 16012KT P6SM SCT050 OVC100
     FM082000 19008KT 6SM -RA SCT015 OVC025
     FM090000 22006KT 4SM -RA BR OVC015
     FM090300 24005KT 4SM -SN BR SCT006 OVC012=



000
FTUS41 KCLE 081136
TAFTOL
TAF
KTOL 081136Z 0812/0912 25005KT P6SM SCT050 OVC100
     FM081500 28008KT 5SM BR SCT025 OVC035
     FM090700 27008KT P6SM OVC025=



000
FTUS41 KCLE 081004 AAA
TAFMFD
TAF AMD
KMFD 081004Z 0810/0906 20008KT P6SM VCSH SCT009 OVC035
     FM081600 24006KT 5SM -RASN BR OVC006
     FM082100 27012KT 3SM BR OVC012=



000
FTUS41 KCLE 080855 AAA
TAFCLE
TAF AMD
KCLE 080855Z 0809/0912 21010KT P6SM -RA SCT035 OVC050
     FM081200 24008KT 5SM -RA OVC020
     FM082200 26006KT 4SM -SN OVC015=



000
FTUS41 KCLE 080855 AAA
TAFCLE
TAF AMD
KCLE 080855Z 0809/0912 21010KT P6SM -RA SCT035 OVC050
     FM081200 24008KT 5SM -RA OVC020
     FM082200 26006KT 4SM -SN OVC015=



000
FTUS41 KCLE 080535
TAFTOL
TAF
KTOL 080535Z 0806/0906 24008KT P6SM OVC040
      TEMPO 0809/0812 -RA BKN025
     FM081200 26008KT P6SM OVC020=



000
FTUS41 KCLE 080535
TAFFDY
TAF
KFDY 080535Z 0806/0906 22010KT P6SM OVC040
      TEMPO 0810/0814 -RA BKN025
     FM081500 27008KT P6SM OVC020=



000
FTUS41 KCLE 080535
TAFFDY
TAF
KFDY 080535Z 0806/0906 22010KT P6SM OVC040
      TEMPO 0810/0814 -RA BKN025
     FM081500 27008KT P6SM OVC020=



000
FTUS41 KCLE 080535
TAFCLE
TAF
KCLE 080535Z 0806/0912 18010KT P6SM OVC050
     FM081200 20008KT 3SM -RASN BR OVC020
     FM081500 24008KT 2SM -SN BR OVC008
     FM082100 29008KT 5SM BR OVC012=



000
FTUS41 KCLE 080535
TAFYNG
TAF
KYNG 080535Z 0806/0906 17006KT P6SM SCT050 OVC120
     FM081800 20008KT 5SM -RA BR OVC025
     FM082200 25008KT 2SM -SN OVC012=



000
FTUS41 KCLE 080535
TAFERI
TAF
KERI 080535Z 0806/0906 17012KT P6SM BKN120
     FM081400 16008KT P6SM SCT025 OVC045
     FM082100 22010KT 3SM -RASN OVC020
     FM090000 24010KT 2SM -SN SCT008 OVC012=



000
FTUS41 KCLE 080535
TAFTOL
TAF
KTOL 080535Z 0806/0906 24008KT P6SM OVC040
      TEMPO 0809/0812 -RA BKN025
     FM081200 26008KT P6SM OVC020=



000
FTUS41 KCLE 080535
TAFCLE
TAF
KCLE 080535Z 0806/0912 18010KT P6SM OVC050
     FM081200 20008KT 3SM -RASN BR OVC020
     FM081500 24008KT 2SM -SN BR OVC008
     FM082100 29008KT 5SM BR OVC012=



000
FTUS41 KCLE 080535
TAFCAK
TAF
KCAK 080535Z 0806/0906 17010KT P6SM SCT050 OVC120
     FM081200 18006KT 5SM -RASN BR OVC025
     FM081600 20006KT 2SM -SN SCT008 OVC012
     FM082200 28008KT 5SM BR OVC020=



000
FTUS41 KCLE 080535
TAFYNG
TAF
KYNG 080535Z 0806/0906 17006KT P6SM SCT050 OVC120
     FM081800 20008KT 5SM -RA BR OVC025
     FM082200 25008KT 2SM -SN OVC012=



000
FTUS41 KCLE 080535
TAFCAK
TAF
KCAK 080535Z 0806/0906 17010KT P6SM SCT050 OVC120
     FM081200 18006KT 5SM -RASN BR OVC025
     FM081600 20006KT 2SM -SN SCT008 OVC012
     FM082200 28008KT 5SM BR OVC020=



000
FTUS41 KCLE 080535
TAFMFD
TAF
KMFD 080535Z 0806/0906 20008KT P6SM OVC080
      TEMPO 0808/0810 5SM -RA BR OVC025
     FM081000 20006KT 4SM -RASN BR OVC012
     FM081300 24006KT 2SM -SN BR OVC006
     FM081800 27012KT 3SM BR OVC012=



000
FTUS41 KCLE 080535
TAFERI
TAF
KERI 080535Z 0806/0906 17012KT P6SM BKN120
     FM081400 16008KT P6SM SCT025 OVC045
     FM082100 22010KT 3SM -RASN OVC020
     FM090000 24010KT 2SM -SN SCT008 OVC012=



000
FTUS41 KCLE 080535
TAFMFD
TAF
KMFD 080535Z 0806/0906 20008KT P6SM OVC080
      TEMPO 0808/0810 5SM -RA BR OVC025
     FM081000 20006KT 4SM -RASN BR OVC012
     FM081300 24006KT 2SM -SN BR OVC006
     FM081800 27012KT 3SM BR OVC012=



000
FTUS41 KCLE 080339 AAA
TAFCLE
TAF AMD
KCLE 080339Z 0804/0906 20010KT P6SM SCT040 OVC080
     FM080700 20008KT P6SM OVC045
     FM081200 20006KT 3SM -RASN BR OVC012
     FM081600 28008KT 2SM -SN BR OVC008=



000
FTUS41 KCLE 080339 AAA
TAFCLE
TAF AMD
KCLE 080339Z 0804/0906 20010KT P6SM SCT040 OVC080
     FM080700 20008KT P6SM OVC045
     FM081200 20006KT 3SM -RASN BR OVC012
     FM081600 28008KT 2SM -SN BR OVC008=



000
FTUS41 KCLE 072331
TAFTOL
TAF
KTOL 072331Z 0800/0824 20012G18KT P6SM SCT035 OVC100
     FM080400 21010KT 6SM -RA BR OVC035
     FM080900 24005KT 5SM -SN OVC015
     FM081400 27008KT P6SM OVC020=



000
FTUS41 KCLE 072331
TAFERI
TAF
KERI 072331Z 0800/0824 17008KT P6SM BKN120
     FM081400 16012KT P6SM SCT025 OVC045
     FM082100 27012KT 3SM -RASN OVC012=



000
FTUS41 KCLE 072331
TAFMFD
TAF
KMFD 072331Z 0800/0824 20012G18KT P6SM BKN120
     FM080600 20008KT 6SM -RA BR OVC045
      TEMPO 0806/0810 4SM -RASN BR OVC015
     FM081000 20006KT 4SM -RASN BR OVC012
     FM081300 24006KT 1 1/2SM -SN BR OVC006
     FM081800 27012KT 3SM BR OVC012=



000
FTUS41 KCLE 072331
TAFCAK
TAF
KCAK 072331Z 0800/0824 20010KT P6SM SCT050 OVC120
     FM080800 19006KT P6SM -RA OVC045
      TEMPO 0808/0810 5SM -RASN BR OVC025
     FM081000 18006KT 3SM -RASN BR OVC010
     FM081400 20006KT 1SM -SN BR OVC006
     FM081900 24008KT 3SM -SN OVC012=



000
FTUS41 KCLE 072331
TAFFDY
TAF
KFDY 072331Z 0800/0824 20012G18KT P6SM SCT035 OVC100
     FM080400 20010KT 6SM -RA BR OVC035
     FM081000 24005KT 5SM -SN OVC015
     FM081500 27008KT P6SM OVC020=



000
FTUS41 KCLE 072331
TAFYNG
TAF
KYNG 072331Z 0800/0824 19010KT P6SM SCT050 BKN120
     FM080600 18006KT P6SM SCT025 OVC050
     FM081500 16005KT 3SM -RASN BR OVC012
     FM081800 16006KT 2SM -SN BR OVC006=



000
FTUS41 KCLE 072331
TAFCLE
TAF
KCLE 072331Z 0800/0906 20012KT P6SM SCT050 BKN120
     FM080800 20008KT P6SM -RA OVC045
      TEMPO 0808/0812 5SM -RASN BR OVC025
     FM081200 20006KT 1SM -SN BR OVC006
     FM081800 28008KT 5SM -RASN BR OVC012=



000
FTUS41 KCLE 072331
TAFTOL
TAF
KTOL 072331Z 0800/0824 20012G18KT P6SM SCT035 OVC100
     FM080400 21010KT 6SM -RA BR OVC035
     FM080900 24005KT 5SM -SN OVC015
     FM081400 27008KT P6SM OVC020=



000
FTUS41 KCLE 072331
TAFERI
TAF
KERI 072331Z 0800/0824 17008KT P6SM BKN120
     FM081400 16012KT P6SM SCT025 OVC045
     FM082100 27012KT 3SM -RASN OVC012=



000
FTUS41 KCLE 072331
TAFCLE
TAF
KCLE 072331Z 0800/0906 20012KT P6SM SCT050 BKN120
     FM080800 20008KT P6SM -RA OVC045
      TEMPO 0808/0812 5SM -RASN BR OVC025
     FM081200 20006KT 1SM -SN BR OVC006
     FM081800 28008KT 5SM -RASN BR OVC012=



000
FTUS41 KCLE 072331
TAFYNG
TAF
KYNG 072331Z 0800/0824 19010KT P6SM SCT050 BKN120
     FM080600 18006KT P6SM SCT025 OVC050
     FM081500 16005KT 3SM -RASN BR OVC012
     FM081800 16006KT 2SM -SN BR OVC006=



000
FTUS41 KCLE 072331
TAFFDY
TAF
KFDY 072331Z 0800/0824 20012G18KT P6SM SCT035 OVC100
     FM080400 20010KT 6SM -RA BR OVC035
     FM081000 24005KT 5SM -SN OVC015
     FM081500 27008KT P6SM OVC020=



000
FTUS41 KCLE 072331
TAFCAK
TAF
KCAK 072331Z 0800/0824 20010KT P6SM SCT050 OVC120
     FM080800 19006KT P6SM -RA OVC045
      TEMPO 0808/0810 5SM -RASN BR OVC025
     FM081000 18006KT 3SM -RASN BR OVC010
     FM081400 20006KT 1SM -SN BR OVC006
     FM081900 24008KT 3SM -SN OVC012=



000
FTUS41 KCLE 072331
TAFMFD
TAF
KMFD 072331Z 0800/0824 20012G18KT P6SM BKN120
     FM080600 20008KT 6SM -RA BR OVC045
      TEMPO 0806/0810 4SM -RASN BR OVC015
     FM081000 20006KT 4SM -RASN BR OVC012
     FM081300 24006KT 1 1/2SM -SN BR OVC006
     FM081800 27012KT 3SM BR OVC012=



000
FTUS41 KCLE 072045 AAB
TAFCLE
TAF AMD
KCLE 072045Z 0721/0824 20012KT P6SM BKN250
     FM072300 19010KT P6SM BKN120
     FM080200 19010KT P6SM SCT045 OVC100
      TEMPO 0802/0806 BKN045
     FM080600 20008KT P6SM -RA OVC045
      TEMPO 0808/0812 5SM -RASN BR OVC025
     FM081200 20006KT 4SM -RASN BR OVC010
     FM081400 20006KT 3SM -RASN BR OVC008
     FM081800 28005KT 5SM -RASN BR OVC015=



000
FTUS41 KCLE 072011 AAA
TAFMFD
TAF AMD
KMFD 072011Z 0720/0818 21014G22KT P6SM BKN250
     FM072200 19010KT P6SM BKN120
     FM080200 19010KT P6SM SCT045 OVC120
      TEMPO 0802/0806 BKN045
     FM080600 20008KT 6SM -RA BR OVC045
      TEMPO 0806/0810 4SM -RASN BR OVC015
     FM081000 20006KT 4SM -RASN BR OVC012
     FM081400 24006KT 2SM -RASN BR OVC008=



000
FTUS41 KCLE 072011 AAA
TAFMFD
TAF AMD
KMFD 072011Z 0720/0818 21014G22KT P6SM BKN250
     FM072200 19010KT P6SM BKN120
     FM080200 19010KT P6SM SCT045 OVC120
      TEMPO 0802/0806 BKN045
     FM080600 20008KT 6SM -RA BR OVC045
      TEMPO 0806/0810 4SM -RASN BR OVC015
     FM081000 20006KT 4SM -RASN BR OVC012
     FM081400 24006KT 2SM -RASN BR OVC008=



000
FTUS41 KCLE 071943 AAA
TAFFDY
TAF AMD
KFDY 071943Z 0720/0818 20014G22KT P6SM SCT120 BKN200
     FM072200 21009KT P6SM SCT045 BKN120
     FM080300 21006KT 6SM -RA BR OVC045
      TEMPO 0803/0807 4SM -RA BR OVC025
     FM080700 22005KT 6SM BR OVC025
     FM081000 23005KT 5SM BR OVC012
     FM081400 26005KT 6SM BR OVC012=



000
FTUS41 KCLE 071943 AAA
TAFERI
TAF AMD
KERI 071943Z 0720/0818 20012KT P6SM BKN250
     FM080000 18008KT P6SM BKN120
     FM080600 16005KT P6SM SCT045 OVC100
      TEMPO 0806/0810 BKN045
     FM081000 16010KT P6SM OVC045
     FM081400 16012KT P6SM SCT025 OVC045=



000
FTUS41 KCLE 071756 CCA
TAFERI
TAF COR
KERI 071756Z 0718/0818 17012KT P6SM BKN250
     FM080000 18008KT P6SM BKN120
     FM080600 16005KT P6SM SCT045 OVC100
      TEMPO 0806/0810 BKN045
     FM081000 16010KT P6SM OVC045
     FM081400 16012KT P6SM SCT025 OVC045=



000
FTUS41 KCLE 071756 CCA
TAFERI
TAF COR
KERI 071756Z 0718/0818 17012KT P6SM BKN250
     FM080000 18008KT P6SM BKN120
     FM080600 16005KT P6SM SCT045 OVC100
      TEMPO 0806/0810 BKN045
     FM081000 16010KT P6SM OVC045
     FM081400 16012KT P6SM SCT025 OVC045=



000
FTUS41 KCLE 071729
TAFTOL
TAF
KTOL 071729Z 0718/0818 21014KT P6SM BKN120
     FM072200 21009KT P6SM SCT045 BKN080
     FM080200 21006KT 6SM -RA BR OVC045
      TEMPO 0802/0806 4SM -RA BR OVC025
     FM080600 22005KT 6SM BR OVC025
     FM081000 25005KT 5SM BR OVC012
     FM081400 25005KT 6SM BR OVC012=



000
FTUS41 KCLE 071729
TAFFDY
TAF
KFDY 071729Z 0718/0818 20014KT P6SM SCT120 BKN200
     FM072200 21009KT P6SM SCT045 BKN120
     FM080300 21006KT 6SM -RA BR OVC045
      TEMPO 0803/0807 4SM -RA BR OVC025
     FM080700 22005KT 6SM BR OVC025
     FM081000 23005KT 5SM BR OVC012
     FM081400 26005KT 6SM BR OVC012=



000
FTUS41 KCLE 071729
TAFCAK
TAF
KCAK 071729Z 0718/0818 20012KT P6SM SCT250
     FM080000 19010KT P6SM BKN120
     FM080400 19006KT P6SM SCT045 OVC100
      TEMPO 0804/0808 BKN045
     FM080800 18005KT P6SM -RA OVC045
      TEMPO 0808/0810 5SM -RASN BR OVC025
     FM081000 18006KT 3SM -RASN BR OVC010
     FM081400 18006KT 2SM -RASN BR OVC006=



000
FTUS41 KCLE 071729
TAFYNG
TAF
KYNG 071729Z 0718/0818 18009KT P6SM SCT250
     FM080000 16008KT P6SM BKN120
     FM080400 16005KT P6SM SCT045 OVC100
      TEMPO 0804/0808 BKN045
     FM080800 16005KT P6SM -RA OVC045
      TEMPO 0810/0812 5SM -RASN BR OVC025
     FM081200 16005KT 3SM -RASN BR OVC010
     FM081500 16006KT 2SM -RASN BR OVC006=



000
FTUS41 KCLE 071729
TAFERI
TAF
KERI 071729Z 0718/0818 17014G22KT P6SM BKN250
     FM080000 18008KT P6SM BKN120
     FM080600 16005KT P6SM SCT045 OVC100
      TEMPO 0806/0810 BKN045
     FM081000 16010KT P6SM OVC045
     FM081400 16012KT P6SM SCT025 OVC045=



000
FTUS41 KCLE 071729
TAFMFD
TAF
KMFD 071729Z 0718/0818 19012KT P6SM BKN250
     FM072200 19010KT P6SM BKN120
     FM080200 19010KT P6SM SCT045 OVC120
      TEMPO 0802/0806 BKN045
     FM080600 20008KT 6SM -RA BR OVC045
      TEMPO 0806/0810 4SM -RASN BR OVC015
     FM081000 20006KT 4SM -RASN BR OVC012
     FM081400 24006KT 2SM -RASN BR OVC008=



000
FTUS41 KCLE 071729
TAFCLE
TAF
KCLE 071729Z 0718/0824 19012KT P6SM BKN250
     FM072300 19010KT P6SM BKN120
     FM080200 19010KT P6SM SCT045 OVC100
      TEMPO 0802/0806 BKN045
     FM080600 20008KT P6SM -RA OVC045
      TEMPO 0808/0812 5SM -RASN BR OVC025
     FM081200 20006KT 4SM -RASN BR OVC010
     FM081400 20006KT 3SM -RASN BR OVC008
     FM081800 28005KT 5SM -RASN BR OVC015=



000
FTUS41 KCLE 071729
TAFCAK
TAF
KCAK 071729Z 0718/0818 20012KT P6SM SCT250
     FM080000 19010KT P6SM BKN120
     FM080400 19006KT P6SM SCT045 OVC100
      TEMPO 0804/0808 BKN045
     FM080800 18005KT P6SM -RA OVC045
      TEMPO 0808/0810 5SM -RASN BR OVC025
     FM081000 18006KT 3SM -RASN BR OVC010
     FM081400 18006KT 2SM -RASN BR OVC006=



000
FTUS41 KCLE 071729
TAFCLE
TAF
KCLE 071729Z 0718/0824 19012KT P6SM BKN250
     FM072300 19010KT P6SM BKN120
     FM080200 19010KT P6SM SCT045 OVC100
      TEMPO 0802/0806 BKN045
     FM080600 20008KT P6SM -RA OVC045
      TEMPO 0808/0812 5SM -RASN BR OVC025
     FM081200 20006KT 4SM -RASN BR OVC010
     FM081400 20006KT 3SM -RASN BR OVC008
     FM081800 28005KT 5SM -RASN BR OVC015=



000
FTUS41 KCLE 071729
TAFMFD
TAF
KMFD 071729Z 0718/0818 19012KT P6SM BKN250
     FM072200 19010KT P6SM BKN120
     FM080200 19010KT P6SM SCT045 OVC120
      TEMPO 0802/0806 BKN045
     FM080600 20008KT 6SM -RA BR OVC045
      TEMPO 0806/0810 4SM -RASN BR OVC015
     FM081000 20006KT 4SM -RASN BR OVC012
     FM081400 24006KT 2SM -RASN BR OVC008=



000
FTUS41 KCLE 071729
TAFFDY
TAF
KFDY 071729Z 0718/0818 20014KT P6SM SCT120 BKN200
     FM072200 21009KT P6SM SCT045 BKN120
     FM080300 21006KT 6SM -RA BR OVC045
      TEMPO 0803/0807 4SM -RA BR OVC025
     FM080700 22005KT 6SM BR OVC025
     FM081000 23005KT 5SM BR OVC012
     FM081400 26005KT 6SM BR OVC012=



000
FTUS41 KCLE 071729
TAFYNG
TAF
KYNG 071729Z 0718/0818 18009KT P6SM SCT250
     FM080000 16008KT P6SM BKN120
     FM080400 16005KT P6SM SCT045 OVC100
      TEMPO 0804/0808 BKN045
     FM080800 16005KT P6SM -RA OVC045
      TEMPO 0810/0812 5SM -RASN BR OVC025
     FM081200 16005KT 3SM -RASN BR OVC010
     FM081500 16006KT 2SM -RASN BR OVC006=



000
FTUS41 KCLE 071729
TAFERI
TAF
KERI 071729Z 0718/0818 17014G22KT P6SM BKN250
     FM080000 18008KT P6SM BKN120
     FM080600 16005KT P6SM SCT045 OVC100
      TEMPO 0806/0810 BKN045
     FM081000 16010KT P6SM OVC045
     FM081400 16012KT P6SM SCT025 OVC045=



000
FTUS41 KCLE 071729
TAFTOL
TAF
KTOL 071729Z 0718/0818 21014KT P6SM BKN120
     FM072200 21009KT P6SM SCT045 BKN080
     FM080200 21006KT 6SM -RA BR OVC045
      TEMPO 0802/0806 4SM -RA BR OVC025
     FM080600 22005KT 6SM BR OVC025
     FM081000 25005KT 5SM BR OVC012
     FM081400 25005KT 6SM BR OVC012=



000
FTUS41 KCLE 071456 AAA
TAFFDY
TAF AMD
KFDY 071456Z 0715/0812 20012KT P6SM BKN120
     FM072300 21008KT P6SM OVC040
     FM080300 22008KT 4SM -RA BR OVC025
     FM080600 23006KT 1 1/2SM -SN BR OVC015
     FM081100 26005KT 1 1/2SM -SN BR OVC003=



000
FTUS41 KCLE 071455 AAA
TAFTOL
TAF AMD
KTOL 071455Z 0715/0812 20011KT P6SM BKN120
     FM072300 21008KT P6SM OVC040
     FM080300 22008KT 4SM -RA BR OVC025
     FM080700 23006KT 1 1/2SM -SN BR OVC015
     FM081100 26005KT 1 1/2SM -SN BR OVC003=



000
FTUS41 KCLE 071454 AAA
TAFCLE
TAF AMD
KCLE 071454Z 0715/0818 19009KT P6SM BKN250
     FM072100 19008KT P6SM OVC100
     FM080800 19007KT 6SM -RA OVC025
     FM081000 18007KT 4SM -RA BR OVC015
     FM081200 20007KT 2SM -SN BR OVC004=



000
FTUS41 KCLE 071454 AAA
TAFCLE
TAF AMD
KCLE 071454Z 0715/0818 19009KT P6SM BKN250
     FM072100 19008KT P6SM OVC100
     FM080800 19007KT 6SM -RA OVC025
     FM081000 18007KT 4SM -RA BR OVC015
     FM081200 20007KT 2SM -SN BR OVC004=



000
FTUS41 KCLE 071132
TAFCLE
TAF
KCLE 071132Z 0712/0818 16007KT P6SM SKC
     FM071300 19009KT P6SM BKN250
     FM072100 19008KT P6SM OVC100
     FM080800 19007KT 6SM -RA OVC025
     FM081000 18007KT 4SM -RA BR OVC015
     FM081200 20007KT 2SM -SN BR OVC004=



000
FTUS41 KCLE 071132
TAFMFD
TAF
KMFD 071132Z 0712/0812 20007KT P6SM SCT050
     FM071300 20010KT P6SM BKN250
     FM071700 20010G20KT P6SM OVC250
     FM072300 18010KT P6SM OVC100
     FM080700 19009KT 4SM -RA BR OVC015
     FM081100 18007KT 1 1/2SM -RA BR OVC003=



000
FTUS41 KCLE 071132
TAFERI
TAF
KERI 071132Z 0712/0812 18006KT P6SM SKC
     FM071400 19008KT P6SM BKN250
     FM072300 17006KT P6SM OVC100
     FM080800 15006KT P6SM OVC035=



000
FTUS41 KCLE 071132
TAFCAK
TAF
KCAK 071132Z 0712/0812 17005KT P6SM SKC
     FM071300 20009KT P6SM BKN250
     FM072300 18008KT P6SM OVC100
     FM080900 17007KT 6SM -RA BR OVC025
     FM081100 16008KT 4SM -SN BR OVC007=



000
FTUS41 KCLE 071132
TAFTOL
TAF
KTOL 071132Z 0712/0812 21007KT P6SM BKN120
     FM071500 22010G20KT P6SM BKN120
     FM072300 21008KT P6SM OVC040
     FM080300 22008KT 4SM -RA BR OVC025
     FM080700 23006KT 1 1/2SM -SN BR OVC015
     FM081100 26005KT 1 1/2SM -SN BR OVC003=



000
FTUS41 KCLE 071132
TAFYNG
TAF
KYNG 071132Z 0712/0812 19007KT P6SM SKC
     FM071400 19008KT P6SM BKN250
     FM072300 17006KT P6SM OVC100
     FM080800 15006KT P6SM OVC035=



000
FTUS41 KCLE 071132
TAFFDY
TAF
KFDY 071132Z 0712/0812 19010KT P6SM OVC120
     FM071500 22015G25KT P6SM BKN120
     FM072300 21008KT P6SM OVC040
     FM080300 22008KT 4SM -RA BR OVC025
     FM080600 23006KT 1 1/2SM -SN BR OVC015
     FM081100 26005KT 1 1/2SM -SN BR OVC003=



000
FTUS41 KCLE 070901 AAA
TAFCLE
TAF AMD
KCLE 070901Z 0709/0812 19006KT P6SM SCT250
     FM071800 20014G22KT P6SM SCT040 OVC120
     FM080400 18012KT P6SM SCT020 OVC040=



000
FTUS41 KCLE 070520
TAFTOL
TAF
KTOL 070520Z 0706/0806 21007KT P6SM SCT060
     FM071400 22014G22KT P6SM SCT040 BKN120
     FM072200 22012KT P6SM OVC040=



000
FTUS41 KCLE 070520
TAFYNG
TAF
KYNG 070520Z 0706/0806 21005KT P6SM SCT050
     FM072000 20012G18KT P6SM SCT040 OVC120=



000
FTUS41 KCLE 070520
TAFFDY
TAF
KFDY 070520Z 0706/0806 20007KT P6SM SCT120
     FM071500 22014G22KT P6SM SCT040 OVC120
     FM072300 22012KT P6SM OVC040=



000
FTUS41 KCLE 070520
TAFMFD
TAF
KMFD 070520Z 0706/0806 21005KT P6SM SCT200
     FM071800 22014G22KT P6SM SCT040 OVC120
     FM080300 20012KT P6SM SCT020 OVC040=



000
FTUS41 KCLE 070520
TAFERI
TAF
KERI 070520Z 0706/0806 19008KT P6SM SCT025 BKN050
     FM071400 21012G18KT P6SM SCT050 BKN120=



000
FTUS41 KCLE 070520
TAFCAK
TAF
KCAK 070520Z 0706/0806 22005KT P6SM SCT050
     FM072000 20012G18KT P6SM SCT040 OVC120=



000
FTUS41 KCLE 070520
TAFCLE
TAF
KCLE 070520Z 0706/0812 22008KT P6SM SCT250
     FM071800 20014G22KT P6SM SCT040 OVC120
     FM080400 18012KT P6SM SCT020 OVC040=



000
FTUS41 KCLE 070306 AAA
TAFCLE
TAF AMD
KCLE 070306Z 0703/0806 22008KT P6SM SCT250=



000
FTUS41 KCLE 070306 AAA
TAFCLE
TAF AMD
KCLE 070306Z 0703/0806 22008KT P6SM SCT250=



000
FTUS41 KCLE 062330
TAFMFD
TAF
KMFD 062330Z 0700/0724 21007KT P6SM SCT250
     FM070300 21005KT P6SM SCT025 BKN040=



000
FTUS41 KCLE 062330
TAFFDY
TAF
KFDY 062330Z 0700/0724 22007KT P6SM SCT025
     FM070300 22007KT P6SM SCT025 BKN040
     FM071500 22014G22KT P6SM SCT040 OVC120=



000
FTUS41 KCLE 062330
TAFERI
TAF
KERI 062330Z 0700/0724 26008KT P6SM SCT050
     FM070500 19008KT P6SM SCT025 OVC040=



000
FTUS41 KCLE 062330
TAFCAK
TAF
KCAK 062330Z 0700/0724 22008KT P6SM SCT250
     FM070400 20005KT P6SM SCT025 BKN040=



000
FTUS41 KCLE 062330
TAFCLE
TAF
KCLE 062330Z 0700/0806 22008KT P6SM SCT250
     FM070300 20005KT P6SM SCT025 BKN040=



000
FTUS41 KCLE 062330
TAFCAK
TAF
KCAK 062330Z 0700/0724 22008KT P6SM SCT250
     FM070400 20005KT P6SM SCT025 BKN040=



000
FTUS41 KCLE 062330
TAFYNG
TAF
KYNG 062330Z 0700/0724 23007KT P6SM SCT250
     FM070500 18005KT P6SM SCT025 BKN040=



000
FTUS41 KCLE 062330
TAFMFD
TAF
KMFD 062330Z 0700/0724 21007KT P6SM SCT250
     FM070300 21005KT P6SM SCT025 BKN040=



000
FTUS41 KCLE 062330
TAFTOL
TAF
KTOL 062330Z 0700/0724 21007KT P6SM SCT025
     FM070200 21007KT P6SM SCT025 OVC040
     FM071400 22014G22KT P6SM SCT040 OVC120=



000
FTUS41 KCLE 062330
TAFFDY
TAF
KFDY 062330Z 0700/0724 22007KT P6SM SCT025
     FM070300 22007KT P6SM SCT025 BKN040
     FM071500 22014G22KT P6SM SCT040 OVC120=



000
FTUS41 KCLE 062330
TAFCLE
TAF
KCLE 062330Z 0700/0806 22008KT P6SM SCT250
     FM070300 20005KT P6SM SCT025 BKN040=



000
FTUS41 KCLE 062330
TAFERI
TAF
KERI 062330Z 0700/0724 26008KT P6SM SCT050
     FM070500 19008KT P6SM SCT025 OVC040=



000
FTUS41 KCLE 062330
TAFTOL
TAF
KTOL 062330Z 0700/0724 21007KT P6SM SCT025
     FM070200 21007KT P6SM SCT025 OVC040
     FM071400 22014G22KT P6SM SCT040 OVC120=



000
FTUS41 KCLE 062330
TAFYNG
TAF
KYNG 062330Z 0700/0724 23007KT P6SM SCT250
     FM070500 18005KT P6SM SCT025 BKN040=



000
FTUS41 KCLE 062041 AAB
TAFCLE
TAF AMD
KCLE 062041Z 0621/0724 23009KT P6SM SCT250
     FM070300 20005KT P6SM SCT025 BKN060=



000
FTUS41 KCLE 062041 AAB
TAFCLE
TAF AMD
KCLE 062041Z 0621/0724 23009KT P6SM SCT250
     FM070300 20005KT P6SM SCT025 BKN060=



000
FTUS41 KCLE 061933 AAA
TAFTOL
TAF AMD
KTOL 061933Z 0620/0718 23010KT P6SM SCT025 BKN250
     FM070200 22005KT P6SM SCT025 BKN060=



000
FTUS41 KCLE 061858 AAB
TAFCLE
TAF AMD
KCLE 061858Z 0619/0724 24011KT P6SM FEW035 SCT250
     FM070300 20005KT P6SM SCT025 BKN060=



000
FTUS41 KCLE 061858 AAB
TAFCLE
TAF AMD
KCLE 061858Z 0619/0724 24011KT P6SM FEW035 SCT250
     FM070300 20005KT P6SM SCT025 BKN060=



000
FTUS41 KCLE 061858 AAA
TAFMFD
TAF AMD
KMFD 061858Z 0619/0718 23009KT P6SM FEW030 SCT250
     FM070300 21005KT P6SM SCT025 BKN060=



000
FTUS41 KCLE 061857 AAA
TAFCAK
TAF AMD
KCAK 061857Z 0619/0718 25009KT P6SM FEW035 SCT250
     FM070500 20005KT P6SM SCT025 BKN060=



000
FTUS41 KCLE 061857 AAA
TAFCAK
TAF AMD
KCAK 061857Z 0619/0718 25009KT P6SM FEW035 SCT250
     FM070500 20005KT P6SM SCT025 BKN060=



000
FTUS41 KCLE 061856 AAA
TAFYNG
TAF AMD
KYNG 061856Z 0619/0718 26009KT P6SM FEW035 SCT250
     FM070500 18005KT P6SM SCT025 BKN050=



000
FTUS41 KCLE 061856 AAA
TAFYNG
TAF AMD
KYNG 061856Z 0619/0718 26009KT P6SM FEW035 SCT250
     FM070500 18005KT P6SM SCT025 BKN050=



000
FTUS41 KCLE 061824 AAA
TAFFDY
TAF AMD
KFDY 061824Z 0618/0718 22011KT P6SM SCT025
     FM070200 22005KT P6SM SCT025 BKN060=



000
FTUS41 KCLE 061730
TAFFDY
TAF
KFDY 061730Z 0618/0718 22010KT 4SM HZ BKN018
     FM061900 22010KT P6SM SCT025
     FM070200 22005KT P6SM SCT025 BKN060=



000
FTUS41 KCLE 061730
TAFTOL
TAF
KTOL 061730Z 0618/0718 23008KT P6SM SCT025
      TEMPO 0619/0620 BKN025
     FM070200 22005KT P6SM SCT025 BKN060=



000
FTUS41 KCLE 061730
TAFERI
TAF
KERI 061730Z 0618/0718 27012KT P6SM SCT050
     FM070500 19008KT P6SM SCT025 BKN050=



000
FTUS41 KCLE 061730
TAFCLE
TAF
KCLE 061730Z 0618/0724 25011KT P6SM SCT060 BKN250
     FM070300 20005KT P6SM SCT025 BKN060=



000
FTUS41 KCLE 061730
TAFMFD
TAF
KMFD 061730Z 0618/0718 23009KT P6SM SCT060 BKN250
     FM070300 21005KT P6SM SCT025 BKN060=



000
FTUS41 KCLE 061730
TAFCAK
TAF
KCAK 061730Z 0618/0718 26009KT P6SM SCT060 BKN250
     FM070500 20005KT P6SM SCT025 BKN060=



000
FTUS41 KCLE 061730
TAFYNG
TAF
KYNG 061730Z 0618/0718 26009KT P6SM SCT060 BKN250
     FM070500 18005KT P6SM SCT025 BKN050=



000
FTUS41 KCLE 061720
TAFMFD
TAF
KMFD 061720Z 0618/0718 23008KT P6SM SCT060 BKN250
     FM070300 21005KT P6SM SCT025 BKN060=



000
FTUS41 KCLE 061720
TAFERI
TAF
KERI 061720Z 0618/0718 25011KT P6SM SCT050
     FM070500 19008KT P6SM SCT025 BKN050=



000
FTUS41 KCLE 061720
TAFTOL
TAF
KTOL 061720Z 0618/0718 23008KT P6SM SCT025 BKN250
      TEMPO 0618/0620 BKN025
     FM070200 22005KT P6SM SCT025 BKN060=



000
FTUS41 KCLE 061720
TAFFDY
TAF
KFDY 061720Z 0618/0718 22010KT 4SM HZ BKN015
     FM061900 23010KT P6SM SCT030 BKN250
     FM070200 22005KT P6SM SCT025 BKN060=



000
FTUS41 KCLE 061720
TAFCLE
TAF
KCLE 061720Z 0618/0724 23008KT P6SM SCT060 BKN250
     FM070300 20005KT P6SM SCT025 BKN060=



000
FTUS41 KCLE 061720
TAFYNG
TAF
KYNG 061720Z 0618/0718 25007KT P6SM SCT060 BKN250
     FM070500 18005KT P6SM SCT025 BKN050=



000
FTUS41 KCLE 061720
TAFCAK
TAF
KCAK 061720Z 0618/0718 25007KT P6SM SCT060 BKN250
     FM070500 20005KT P6SM SCT025 BKN060=



000
FTUS41 KCLE 061657 AAB
TAFTOL
TAF AMD
KTOL 061657Z 0617/0712 24012KT P6SM SCT025
      TEMPO 0617/0619 BKN025
     FM070000 22005KT P6SM SCT060 BKN250=



000
FTUS41 KCLE 061657 AAB
TAFTOL
TAF AMD
KTOL 061657Z 0617/0712 24012KT P6SM SCT025
      TEMPO 0617/0619 BKN025
     FM070000 22005KT P6SM SCT060 BKN250=



000
FTUS41 KCLE 061558 AAC
TAFFDY
TAF AMD
KFDY 061558Z 0616/0712 25007KT 4SM BR BKN010 BKN250
     FM061900 23006KT P6SM SCT060 BKN250=



000
FTUS41 KCLE 061522 AAB
TAFFDY
TAF AMD
KFDY 061522Z 0615/0712 25007KT 4SM BR BKN007 BKN250
     FM061700 23006KT P6SM SCT060 BKN250=



000
FTUS41 KCLE 061406 AAA
TAFYNG
TAF AMD
KYNG 061406Z 0614/0712 25007KT P6SM SCT050 BKN250
      TEMPO 0615/0617 BKN010
     FM070000 18005KT P6SM FEW050 BKN250=



000
FTUS41 KCLE 061406 AAA
TAFYNG
TAF AMD
KYNG 061406Z 0614/0712 25007KT P6SM SCT050 BKN250
      TEMPO 0615/0617 BKN010
     FM070000 18005KT P6SM FEW050 BKN250=



000
FTUS41 KCLE 061404 AAA
TAFCAK
TAF AMD
KCAK 061404Z 0614/0712 25006KT 5SM HZ SCT009 BKN250
      TEMPO 0614/0616 BKN009
     FM061600 24007KT P6SM SCT060 BKN250=



000
FTUS41 KCLE 061402 AAB
TAFCLE
TAF AMD
KCLE 061402Z 0614/0718 24008KT P6SM SCT060 BKN250
     FM070000 19006KT P6SM SCT060 BKN250=



000
FTUS41 KCLE 061402 AAB
TAFCLE
TAF AMD
KCLE 061402Z 0614/0718 24008KT P6SM SCT060 BKN250
     FM070000 19006KT P6SM SCT060 BKN250=



000
FTUS41 KCLE 061359 AAA
TAFTOL
TAF AMD
KTOL 061359Z 0614/0712 24006KT 4SM BR SCT060
     FM061500 23008KT P6SM BKN250=



000
FTUS41 KCLE 061359 AAA
TAFTOL
TAF AMD
KTOL 061359Z 0614/0712 24006KT 4SM BR SCT060
     FM061500 23008KT P6SM BKN250=



000
FTUS41 KCLE 061312 AAA
TAFFDY
TAF AMD
KFDY 061312Z 0613/0712 VRB03KT 2SM BR SCT007 BKN250
     FM061400 23006KT 3SM BR SCT008 BKN250
     FM061500 23006KT P6SM BKN250=



000
FTUS41 KCLE 061253 AAA
TAFERI
TAF AMD
KERI 061253Z 0613/0712 24008KT P6SM BKN030
     FM061600 24008KT P6SM BKN250=



000
FTUS41 KCLE 061252 AAA
TAFMFD
TAF AMD
KMFD 061252Z 0613/0712 25005KT 6SM BR BKN008
      TEMPO 0613/0615 4SM BR SCT008 BKN250
     FM061500 22006KT P6SM BKN250=



000
FTUS41 KCLE 061120
TAFCAK
TAF
KCAK 061120Z 0612/0712 24006KT P6SM OVC250=



000
FTUS41 KCLE 061120
TAFTOL
TAF
KTOL 061120Z 0612/0712 19005KT P6SM OVC250
     FM061400 21005KT P6SM BKN060
     FM061500 21005KT P6SM BKN250=



000
FTUS41 KCLE 061120
TAFFDY
TAF
KFDY 061120Z 0612/0712 VRB03KT 5SM BR OVC250
     FM061400 23006KT P6SM BKN060
     FM061500 23006KT P6SM BKN250=



000
FTUS41 KCLE 061120
TAFYNG
TAF
KYNG 061120Z 0612/0712 22008KT P6SM BKN050
     FM061300 22005KT P6SM OVC250=



000
FTUS41 KCLE 061120
TAFCLE
TAF
KCLE 061120Z 0612/0718 23006KT P6SM OVC250=



000
FTUS41 KCLE 061120
TAFERI
TAF
KERI 061120Z 0612/0712 24006KT P6SM BKN060
     FM061300 24006KT P6SM OVC250=



000
FTUS41 KCLE 061120
TAFMFD
TAF
KMFD 061120Z 0612/0712 22006KT P6SM OVC250=



000
FTUS41 KCLE 061120
TAFCLE
TAF
KCLE 061120Z 0612/0718 23006KT P6SM OVC250=



000
FTUS41 KCLE 061120
TAFYNG
TAF
KYNG 061120Z 0612/0712 22008KT P6SM BKN050
     FM061300 22005KT P6SM OVC250=



000
FTUS41 KCLE 061120
TAFFDY
TAF
KFDY 061120Z 0612/0712 VRB03KT 5SM BR OVC250
     FM061400 23006KT P6SM BKN060
     FM061500 23006KT P6SM BKN250=



000
FTUS41 KCLE 061120
TAFTOL
TAF
KTOL 061120Z 0612/0712 19005KT P6SM OVC250
     FM061400 21005KT P6SM BKN060
     FM061500 21005KT P6SM BKN250=



000
FTUS41 KCLE 061120
TAFERI
TAF
KERI 061120Z 0612/0712 24006KT P6SM BKN060
     FM061300 24006KT P6SM OVC250=



000
FTUS41 KCLE 061120
TAFCAK
TAF
KCAK 061120Z 0612/0712 24006KT P6SM OVC250=



000
FTUS41 KCLE 061120
TAFMFD
TAF
KMFD 061120Z 0612/0712 22006KT P6SM OVC250=



000
FTUS41 KCLE 060857 AAA
TAFERI
TAF AMD
KERI 060857Z 0609/0706 21012KT P6SM OVC060
     FM061200 22010KT P6SM SCT060 BKN120=



000
FTUS41 KCLE 060857 AAA
TAFERI
TAF AMD
KERI 060857Z 0609/0706 21012KT P6SM OVC060
     FM061200 22010KT P6SM SCT060 BKN120=



000
FTUS41 KCLE 060856 AAA
TAFCLE
TAF AMD
KCLE 060856Z 0609/0712 24008KT P6SM OVC050
     FM061200 20008KT P6SM SCT060 BKN120=



000
FTUS41 KCLE 060856 AAA
TAFCLE
TAF AMD
KCLE 060856Z 0609/0712 24008KT P6SM OVC050
     FM061200 20008KT P6SM SCT060 BKN120=



000
FTUS41 KCLE 060520
TAFFDY
TAF
KFDY 060520Z 0606/0706 20006KT P6SM SCT050 BKN120=



000
FTUS41 KCLE 060520
TAFTOL
TAF
KTOL 060520Z 0606/0706 24007KT P6SM SCT050 BKN120=



000
FTUS41 KCLE 060520
TAFCLE
TAF
KCLE 060520Z 0606/0712 19008KT P6SM OVC060
     FM060800 20008KT P6SM SCT060 BKN120=



000
FTUS41 KCLE 060520
TAFMFD
TAF
KMFD 060520Z 0606/0706 20010KT P6SM SCT060 BKN120=



000
FTUS41 KCLE 060520
TAFERI
TAF
KERI 060520Z 0606/0706 18008KT P6SM OVC060
     FM061200 22010KT P6SM SCT060 BKN120=



000
FTUS41 KCLE 060520
TAFCAK
TAF
KCAK 060520Z 0606/0706 20006KT P6SM OVC060
     FM060900 20008KT P6SM SCT060 BKN120=



000
FTUS41 KCLE 060520
TAFYNG
TAF
KYNG 060520Z 0606/0706 19006KT P6SM OVC060
     FM061000 20008KT P6SM SCT060 BKN120=



000
FTUS41 KCLE 060255 AAA
TAFCLE
TAF AMD
KCLE 060255Z 0603/0706 19008KT P6SM OVC060
     FM061400 23008KT P6SM SCT060 BKN120=



000
FTUS41 KCLE 060255 AAA
TAFCLE
TAF AMD
KCLE 060255Z 0603/0706 19008KT P6SM OVC060
     FM061400 23008KT P6SM SCT060 BKN120=



000
FTUS41 KCLE 052320
TAFERI
TAF
KERI 052320Z 0600/0624 28006KT P6SM SCT040
     FM060600 22008KT P6SM OVC040=



000
FTUS41 KCLE 052320
TAFMFD
TAF
KMFD 052320Z 0600/0624 20008KT P6SM OVC060=



000
FTUS41 KCLE 052320
TAFTOL
TAF
KTOL 052320Z 0600/0624 22006KT P6SM OVC050=



000
FTUS41 KCLE 052320
TAFCLE
TAF
KCLE 052320Z 0600/0706 20006KT P6SM SCT040 BKN120
     FM060200 20006KT P6SM OVC040=



000
FTUS41 KCLE 052320
TAFCAK
TAF
KCAK 052320Z 0600/0624 22006KT P6SM SCT040
     FM060400 20006KT P6SM OVC040=



000
FTUS41 KCLE 052320
TAFYNG
TAF
KYNG 052320Z 0600/0624 20005KT P6SM SCT040
     FM060500 20006KT P6SM OVC040=



000
FTUS41 KCLE 052320
TAFFDY
TAF
KFDY 052320Z 0600/0624 20006KT P6SM OVC060=



000
FTUS41 KCLE 052320
TAFMFD
TAF
KMFD 052320Z 0600/0624 20008KT P6SM OVC060=



000
FTUS41 KCLE 052320
TAFTOL
TAF
KTOL 052320Z 0600/0624 22006KT P6SM OVC050=



000
FTUS41 KCLE 052320
TAFFDY
TAF
KFDY 052320Z 0600/0624 20006KT P6SM OVC060=



000
FTUS41 KCLE 052320
TAFCAK
TAF
KCAK 052320Z 0600/0624 22006KT P6SM SCT040
     FM060400 20006KT P6SM OVC040=



000
FTUS41 KCLE 052320
TAFERI
TAF
KERI 052320Z 0600/0624 28006KT P6SM SCT040
     FM060600 22008KT P6SM OVC040=



000
FTUS41 KCLE 052320
TAFCLE
TAF
KCLE 052320Z 0600/0706 20006KT P6SM SCT040 BKN120
     FM060200 20006KT P6SM OVC040=



000
FTUS41 KCLE 052320
TAFYNG
TAF
KYNG 052320Z 0600/0624 20005KT P6SM SCT040
     FM060500 20006KT P6SM OVC040=



000
FTUS41 KCLE 052040 AAA
TAFCLE
TAF AMD
KCLE 052040Z 0521/0624 23008KT P6SM SCT040 BKN120
      TEMPO 0603/0607 BKN040=



000
FTUS41 KCLE 052040 AAA
TAFCLE
TAF AMD
KCLE 052040Z 0521/0624 23008KT P6SM SCT040 BKN120
      TEMPO 0603/0607 BKN040=



000
FTUS41 KCLE 051732
TAFTOL
TAF
KTOL 051732Z 0518/0618 21006KT P6SM SCT040 BKN120=



000
FTUS41 KCLE 051732
TAFMFD
TAF
KMFD 051732Z 0518/0618 21006KT P6SM SCT040 BKN120=



000
FTUS41 KCLE 051732
TAFYNG
TAF
KYNG 051732Z 0518/0618 30006KT P6SM BKN030
     FM051900 26007KT P6SM SCT040 BKN120=



000
FTUS41 KCLE 051732
TAFCAK
TAF
KCAK 051732Z 0518/0618 22007KT P6SM SCT040 BKN120=



000
FTUS41 KCLE 051732
TAFERI
TAF
KERI 051732Z 0518/0618 28010KT P6SM BKN035
     FM052100 26010KT P6SM FEW030
     FM060600 22012KT P6SM SCT040 BKN120=



000
FTUS41 KCLE 051732
TAFFDY
TAF
KFDY 051732Z 0518/0618 21006KT P6SM SCT040 BKN120=



000
FTUS41 KCLE 051732
TAFCLE
TAF
KCLE 051732Z 0518/0624 23008KT P6SM SCT040 BKN120
      TEMPO 0603/0607 BKN040=



000
FTUS41 KCLE 051454 AAB
TAFCLE
TAF AMD
KCLE 051454Z 0515/0618 24007KT P6SM FEW025
     FM060000 22006KT P6SM OVC060
     FM061100 22007KT P6SM BKN120
     FM061500 22009KT P6SM BKN040=



000
FTUS41 KCLE 051339 AAA
TAFYNG
TAF AMD
KYNG 051339Z 0514/0612 29007KT P6SM OVC035
      TEMPO 0514/0516 BKN030
     FM051700 26007KT P6SM BKN060
     FM060000 20004KT P6SM BKN120
     FM060600 19007KT P6SM OVC040=



000
FTUS41 KCLE 051339 AAA
TAFYNG
TAF AMD
KYNG 051339Z 0514/0612 29007KT P6SM OVC035
      TEMPO 0514/0516 BKN030
     FM051700 26007KT P6SM BKN060
     FM060000 20004KT P6SM BKN120
     FM060600 19007KT P6SM OVC040=



000
FTUS41 KCLE 051338 AAA
TAFERI
TAF AMD
KERI 051338Z 0514/0612 30010KT P6SM SCT040
      TEMPO 0514/0516 BKN030 OVC040
     FM051700 27010KT P6SM BKN060
     FM052100 26009KT P6SM BKN120
     FM060000 20004KT P6SM OVC040
     FM060600 21010G15KT P6SM OVC040=



000
FTUS41 KCLE 051338 AAA
TAFERI
TAF AMD
KERI 051338Z 0514/0612 30010KT P6SM SCT040
      TEMPO 0514/0516 BKN030 OVC040
     FM051700 27010KT P6SM BKN060
     FM052100 26009KT P6SM BKN120
     FM060000 20004KT P6SM OVC040
     FM060600 21010G15KT P6SM OVC040=



000
FTUS41 KCLE 051336 AAA
TAFCLE
TAF AMD
KCLE 051336Z 0514/0618 25007KT P6SM FEW025
     FM051500 28007KT P6SM SCT250
     FM051700 22006KT P6SM OVC060
     FM061100 22007KT P6SM BKN120
     FM061500 22009KT P6SM BKN040=



000
FTUS41 KCLE 051336 AAA
TAFCLE
TAF AMD
KCLE 051336Z 0514/0618 25007KT P6SM FEW025
     FM051500 28007KT P6SM SCT250
     FM051700 22006KT P6SM OVC060
     FM061100 22007KT P6SM BKN120
     FM061500 22009KT P6SM BKN040=



    US Dept of Commerce
    National Oceanic and Atmospheric Administration
    National Weather Service
    1325 East West Highway
    Silver Spring, MD 20910
    Page Author: NWS Internet Services Team
Disclaimer
Information Quality
Credits
Glossary
Privacy Policy
Freedom of Information Act (FOIA)
About Us
Career Opportunities